Time;durP1;ratioP1;P1;durP2;ratioP2;P2;SDS_P1;SDS_P2;PMS_P1;PMS_P2;Temp;Humidity;BMP_temperature;BMP_pressure;BME280_temperature;BME280_humidity;BME280_pressure;Samples;Min_cycle;Max_cycle;Signal;HPM_P1;HPM_P2
2023/09/10 00:02:24;;;;;;;4.32;2.08;;;22.00;99.90;;;;;;5116563;28;20416;-60
2023/09/10 00:04:51;;;;;;;4.28;2.53;;;22.00;99.90;;;;;;5117241;28;20416;-59
2023/09/10 00:07:19;;;;;;;2.60;2.10;;;22.00;99.90;;;;;;5116375;28;20434;-60
2023/09/10 00:09:47;;;;;;;3.00;2.00;;;22.00;99.90;;;;;;5116270;28;20416;-60
2023/09/10 00:12:14;;;;;;;4.85;2.30;;;22.10;99.90;;;;;;5115443;28;20411;-59
2023/09/10 00:14:41;;;;;;;4.80;2.30;;;22.10;99.90;;;;;;5116238;28;20707;-60
2023/09/10 00:17:09;;;;;;;2.80;1.65;;;22.10;99.90;;;;;;5116327;28;20420;-59
2023/09/10 00:19:36;;;;;;;2.53;1.80;;;22.10;99.90;;;;;;5116680;28;20839;-60
2023/09/10 00:22:03;;;;;;;4.18;1.80;;;22.10;99.90;;;;;;5116327;28;20451;-60
2023/09/10 00:24:30;;;;;;;2.60;1.90;;;22.00;99.90;;;;;;5116590;28;20689;-60
2023/09/10 00:26:59;;;;;;;4.00;2.03;;;21.90;99.90;;;;;;5115118;28;20414;-60
2023/09/10 00:29:27;;;;;;;3.10;1.77;;;21.80;99.90;;;;;;5116401;28;20424;-60
2023/09/10 00:31:54;;;;;;;1.90;1.50;;;21.80;99.90;;;;;;5116557;28;20424;-59
2023/09/10 00:34:21;;;;;;;2.37;1.70;;;21.70;99.90;;;;;;5115261;28;20426;-59
2023/09/10 00:36:48;;;;;;;2.40;1.90;;;21.70;1.00;;;;;;5116330;28;20424;-60
2023/09/10 00:39:15;;;;;;;3.25;2.10;;;21.80;99.90;;;;;;5116267;28;20413;-60
2023/09/10 00:41:42;;;;;;;2.20;1.80;;;21.80;99.90;;;;;;5116508;28;20415;-60
2023/09/10 00:44:11;;;;;;;2.58;1.60;;;21.80;99.90;;;;;;5115995;28;20443;-59
2023/09/10 00:46:38;;;;;;;3.03;1.70;;;21.80;99.90;;;;;;5115969;28;20420;-60
2023/09/10 00:49:05;;;;;;;5.07;2.85;;;21.80;1.00;;;;;;5115855;28;20439;-59
2023/09/10 00:51:33;;;;;;;5.25;2.10;;;21.80;99.90;;;;;;5116183;28;20902;-59
2023/09/10 00:54:00;;;;;;;4.35;2.80;;;21.80;99.90;;;;;;5116332;28;20424;-61
2023/09/10 00:56:27;;;;;;;2.90;1.83;;;21.80;99.90;;;;;;5115388;28;20424;-60
2023/09/10 00:58:55;;;;;;;2.80;2.00;;;21.80;99.90;;;;;;5115459;28;20416;-59
2023/09/10 01:01:23;;;;;;;4.43;2.78;;;21.80;99.90;;;;;;5115940;28;20780;-60
2023/09/10 01:03:51;;;;;;;2.30;1.90;;;21.90;99.90;;;;;;5115650;28;20424;-61
2023/09/10 01:06:18;;;;;;;4.53;2.00;;;21.80;99.90;;;;;;5114315;28;20415;-61
2023/09/10 01:08:47;;;;;;;2.13;1.63;;;21.90;99.90;;;;;;5115106;28;20463;-60
2023/09/10 01:11:25;;;;;;;2.67;1.90;;;21.80;99.90;;;;;;5116067;28;20424;-60
2023/09/10 01:14:02;;;;;;;3.10;2.08;;;21.70;99.90;;;;;;5115338;28;20465;-59
2023/09/10 01:16:38;;;;;;;3.55;1.77;;;21.70;99.90;;;;;;5115097;28;20726;-60
2023/09/10 01:19:10;;;;;;;2.50;2.30;;;21.70;1.00;;;;;;5115466;28;20420;-62
2023/09/10 01:21:47;;;;;;;2.90;2.00;;;21.70;1.00;;;;;;5115639;28;20430;-60
2023/09/10 01:24:21;;;;;;;4.05;2.58;;;21.80;1.00;;;;;;5114164;28;20715;-60
2023/09/10 01:26:56;;;;;;;2.90;2.60;;;21.70;99.90;;;;;;5115666;28;20407;-60
2023/09/10 01:29:23;;;;;;;3.75;2.30;;;21.70;99.90;;;;;;5114714;28;20451;-60
2023/09/10 01:31:54;;;;;;;3.47;1.95;;;21.60;1.00;;;;;;5115539;28;20434;-59
2023/09/10 01:34:25;;;;;;;3.60;2.30;;;21.50;1.00;;;;;;5115223;28;20482;-59
2023/09/10 01:36:57;;;;;;;3.70;2.00;;;21.50;1.00;;;;;;5114969;28;20423;-59
2023/09/10 01:39:28;;;;;;;3.38;2.17;;;21.50;1.00;;;;;;5114415;28;20575;-60
2023/09/10 01:41:58;;;;;;;2.10;1.50;;;21.50;1.00;;;;;;5114688;28;20479;-58
2023/09/10 01:44:26;;;;;;;3.13;2.10;;;21.50;1.00;;;;;;5115081;28;20719;-61
2023/09/10 01:46:55;;;;;;;3.25;1.67;;;21.60;1.00;;;;;;5114909;28;20423;-59
2023/09/10 01:49:22;;;;;;;2.70;1.63;;;21.60;1.00;;;;;;5114540;28;20439;-60
2023/09/10 01:51:50;;;;;;;3.80;1.80;;;21.60;1.00;;;;;;5114960;28;20424;-60
2023/09/10 01:54:17;;;;;;;2.40;1.77;;;21.50;1.00;;;;;;5114391;28;20701;-59
2023/09/10 01:56:44;;;;;;;2.80;1.55;;;21.40;1.00;;;;;;5115184;28;20898;-60
2023/09/10 01:59:12;;;;;;;3.60;2.35;;;21.50;1.00;;;;;;5115087;28;20420;-60
2023/09/10 02:01:40;;;;;;;3.00;2.20;;;21.40;1.00;;;;;;5114877;28;20428;-59
2023/09/10 02:04:07;;;;;;;2.58;2.20;;;21.40;1.00;;;;;;5115418;28;20708;-60
2023/09/10 02:06:34;;;;;;;2.80;1.83;;;21.40;1.00;;;;;;5115473;28;20442;-59
2023/09/10 02:09:01;;;;;;;3.80;2.30;;;21.30;1.00;;;;;;5114885;28;20438;-59
2023/09/10 02:11:28;;;;;;;3.50;1.90;;;21.30;1.00;;;;;;5115098;28;20459;-60
2023/09/10 02:13:55;;;;;;;2.60;1.70;;;21.30;1.00;;;;;;5114935;28;20426;-59
2023/09/10 02:16:24;;;;;;;4.00;2.00;;;21.30;1.00;;;;;;5114743;28;20423;-60
2023/09/10 02:18:51;;;;;;;3.20;2.00;;;21.30;1.00;;;;;;5114737;28;20426;-59
2023/09/10 02:21:18;;;;;;;3.20;1.80;;;21.30;1.00;;;;;;5114658;28;20408;-60
2023/09/10 02:23:45;;;;;;;2.80;2.20;;;21.20;1.00;;;;;;5115466;28;20414;-59
2023/09/10 02:26:13;;;;;;;3.55;1.70;;;21.10;1.00;;;;;;5116795;28;20423;-60
2023/09/10 02:28:40;;;;;;;3.50;2.10;;;21.20;1.00;;;;;;5118809;28;20442;-60
2023/09/10 02:31:07;;;;;;;2.20;1.73;;;21.20;1.00;;;;;;5118589;28;20831;-61
2023/09/10 02:33:36;;;;;;;2.70;1.80;;;21.30;1.00;;;;;;5118589;28;20419;-62
2023/09/10 02:36:04;;;;;;;2.63;1.90;;;21.30;1.00;;;;;;5118587;28;20694;-60
2023/09/10 02:38:31;;;;;;;2.42;2.10;;;21.30;1.00;;;;;;5118682;28;20510;-59
2023/09/10 02:40:59;;;;;;;3.10;2.10;;;21.40;1.00;;;;;;5118543;28;20424;-60
2023/09/10 02:43:26;;;;;;;4.28;2.65;;;21.30;1.00;;;;;;5118303;28;20514;-59
2023/09/10 02:45:53;;;;;;;2.40;2.00;;;21.30;1.00;;;;;;5119028;28;20506;-59
2023/09/10 02:48:20;;;;;;;2.00;1.70;;;21.20;1.00;;;;;;5118451;28;20424;-59
2023/09/10 02:50:49;;;;;;;2.45;1.60;;;21.00;1.00;;;;;;5118323;28;20835;-59
2023/09/10 02:53:16;;;;;;;3.10;2.00;;;21.00;1.00;;;;;;5118580;28;20434;-60
2023/09/10 02:55:43;;;;;;;5.40;2.20;;;21.00;1.00;;;;;;5118351;28;20452;-60
2023/09/10 02:58:10;;;;;;;2.72;2.10;;;20.90;1.00;;;;;;5117933;28;20420;-59
2023/09/10 03:00:37;;;;;;;2.70;2.10;;;21.00;1.00;;;;;;5117786;28;20438;-60
2023/09/10 03:03:05;;;;;;;3.60;2.00;;;21.00;1.00;;;;;;5118001;28;20408;-59
2023/09/10 03:05:34;;;;;;;3.33;2.40;;;21.00;1.00;;;;;;5118779;28;20431;-60
2023/09/10 03:08:03;;;;;;;2.63;1.70;;;20.90;1.00;;;;;;5118478;28;20433;-60
2023/09/10 03:10:30;;;;;;;3.30;2.20;;;20.90;1.00;;;;;;5117938;28;20723;-60
2023/09/10 03:12:57;;;;;;;4.23;2.00;;;20.90;1.00;;;;;;5117198;28;20427;-60
2023/09/10 03:15:25;;;;;;;2.70;2.30;;;20.80;1.00;;;;;;5118183;28;20781;-60
2023/09/10 03:17:52;;;;;;;3.78;2.08;;;20.80;1.00;;;;;;5116655;28;20414;-60
2023/09/10 03:20:19;;;;;;;2.30;1.90;;;20.80;1.00;;;;;;5115758;28;20420;-59
2023/09/10 03:22:46;;;;;;;2.55;1.55;;;20.80;1.00;;;;;;5116163;28;20420;-59
2023/09/10 03:25:14;;;;;;;3.70;1.67;;;20.80;1.00;;;;;;5116293;28;20416;-60
2023/09/10 03:27:41;;;;;;;2.80;2.13;;;20.80;1.00;;;;;;5116249;28;20841;-60
2023/09/10 03:30:09;;;;;;;3.65;2.40;;;20.80;1.00;;;;;;5115966;28;20428;-60
2023/09/10 03:32:36;;;;;;;4.00;2.58;;;20.80;1.00;;;;;;5114284;28;20404;-60
2023/09/10 03:35:05;;;;;;;2.85;2.20;;;20.70;1.00;;;;;;5116548;28;20851;-59
2023/09/10 03:37:32;;;;;;;3.30;2.45;;;20.80;1.00;;;;;;5117367;28;20435;-60
2023/09/10 03:39:59;;;;;;;4.22;2.50;;;20.80;1.00;;;;;;5117838;28;20854;-61
2023/09/10 03:42:27;;;;;;;3.10;2.55;;;20.80;1.00;;;;;;5115791;28;20412;-59
2023/09/10 03:44:54;;;;;;;3.40;2.05;;;20.80;1.00;;;;;;5116131;28;20422;-59
2023/09/10 03:47:21;;;;;;;4.82;2.80;;;20.80;1.00;;;;;;5116722;28;20430;-60
2023/09/10 03:49:47;;;;;;;3.50;2.27;;;20.70;1.00;;;;;;5116202;28;20446;-60
2023/09/10 03:52:20;;;;;;;3.05;2.10;;;20.80;1.00;;;;;;5116327;28;20428;-60
2023/09/10 03:54:47;;;;;;;3.10;2.90;;;20.80;1.00;;;;;;5115758;28;20427;-59
2023/09/10 03:57:15;;;;;;;3.63;2.03;;;20.80;1.00;;;;;;5116136;28;20408;-60
2023/09/10 03:59:43;;;;;;;3.72;2.42;;;20.70;1.00;;;;;;5115759;28;20415;-60
2023/09/10 04:02:12;;;;;;;3.35;2.20;;;20.70;1.00;;;;;;5115973;28;20848;-59
2023/09/10 04:04:39;;;;;;;2.72;2.30;;;20.60;1.00;;;;;;5115372;28;20740;-59
2023/09/10 04:07:06;;;;;;;2.78;2.58;;;20.60;1.00;;;;;;5115863;28;20419;-58
2023/09/10 04:09:33;;;;;;;3.40;2.30;;;20.50;1.00;;;;;;5116434;28;20742;-60
2023/09/10 04:12:00;;;;;;;4.00;2.30;;;20.50;1.00;;;;;;5116462;28;20416;-60
2023/09/10 04:14:28;;;;;;;3.20;2.00;;;20.50;1.00;;;;;;5116950;28;20467;-59
2023/09/10 04:16:56;;;;;;;2.75;2.40;;;20.50;1.00;;;;;;5116614;28;20846;-59
2023/09/10 04:19:23;;;;;;;3.42;2.22;;;20.50;1.00;;;;;;5116184;28;20787;-59
2023/09/10 04:21:50;;;;;;;4.40;2.40;;;20.50;1.00;;;;;;5116454;28;20427;-58
2023/09/10 04:24:18;;;;;;;5.43;2.60;;;20.40;1.00;;;;;;5116322;28;20735;-59
2023/09/10 04:26:45;;;;;;;2.90;2.13;;;20.40;1.00;;;;;;5115525;28;20413;-59
2023/09/10 04:29:12;;;;;;;2.63;2.13;;;20.30;1.00;;;;;;5115952;28;20432;-60
2023/09/10 04:31:41;;;;;;;3.20;2.50;;;20.30;1.00;;;;;;5116056;28;20427;-60
2023/09/10 04:34:10;;;;;;;2.23;1.80;;;20.30;1.00;;;;;;5116571;28;20481;-60
2023/09/10 04:36:37;;;;;;;2.90;2.20;;;20.30;1.00;;;;;;5115927;28;20416;-60
2023/09/10 04:39:08;;;;;;;3.22;2.30;;;20.40;1.00;;;;;;5115553;28;20408;-60
2023/09/10 04:41:35;;;;;;;3.50;2.27;;;20.40;1.00;;;;;;5116643;28;20846;-59
2023/09/10 04:44:03;;;;;;;3.63;2.33;;;20.40;1.00;;;;;;5115659;28;20428;-60
2023/09/10 04:46:30;;;;;;;3.17;2.20;;;20.30;1.00;;;;;;5116036;28;20412;-60
2023/09/10 04:48:58;;;;;;;2.90;2.65;;;20.30;1.00;;;;;;5115052;28;20428;-60
2023/09/10 04:51:27;;;;;;;4.28;2.92;;;20.30;1.00;;;;;;5115787;28;20420;-60
2023/09/10 04:53:55;;;;;;;3.00;2.45;;;20.30;1.00;;;;;;5114664;28;20552;-59
2023/09/10 04:56:22;;;;;;;3.92;2.45;;;20.30;1.00;;;;;;5115917;28;20424;-60
2023/09/10 04:58:49;;;;;;;3.07;2.77;;;20.30;1.00;;;;;;5115690;27;20424;-59
2023/09/10 05:01:16;;;;;;;4.72;2.58;;;20.40;1.00;;;;;;5114447;28;20431;-63
2023/09/10 05:03:44;;;;;;;3.20;2.25;;;20.40;1.00;;;;;;5116227;28;20428;-59
2023/09/10 05:06:12;;;;;;;4.87;2.27;;;20.40;1.00;;;;;;5115846;28;20792;-59
2023/09/10 05:08:41;;;;;;;2.90;2.10;;;20.30;1.00;;;;;;5116332;28;20891;-59
2023/09/10 05:11:08;;;;;;;2.65;2.10;;;20.30;1.00;;;;;;5116355;28;20700;-60
2023/09/10 05:13:36;;;;;;;3.50;2.00;;;20.30;1.00;;;;;;5114356;28;20424;-60
2023/09/10 05:16:03;;;;;;;3.23;2.10;;;20.40;1.00;;;;;;5114266;28;20712;-60
2023/09/10 05:18:30;;;;;;;2.70;2.17;;;20.40;1.00;;;;;;5113590;28;20426;-60
2023/09/10 05:20:57;;;;;;;3.05;2.22;;;20.50;1.00;;;;;;5113689;28;20418;-59
2023/09/10 05:23:27;;;;;;;3.00;1.95;;;20.50;1.00;;;;;;5114194;28;20424;-60
2023/09/10 05:25:56;;;;;;;3.00;2.45;;;20.50;1.00;;;;;;5114340;28;20871;-59
2023/09/10 05:28:23;;;;;;;3.25;2.95;;;20.50;1.00;;;;;;5114266;28;20426;-59
2023/09/10 05:30:50;;;;;;;3.15;2.22;;;20.50;1.00;;;;;;5114925;28;20435;-60
2023/09/10 05:33:17;;;;;;;3.38;2.40;;;20.50;1.00;;;;;;5115950;27;20415;-59
2023/09/10 05:35:53;;;;;;;3.63;2.33;;;20.50;1.00;;;;;;5115227;28;20439;-60
2023/09/10 05:38:21;;;;;;;2.10;1.90;;;20.50;1.00;;;;;;5115364;28;20419;-60
2023/09/10 05:40:48;;;;;;;3.37;2.20;;;20.60;1.00;;;;;;5115235;28;20424;-60
2023/09/10 05:43:16;;;;;;;3.10;2.80;;;20.70;1.00;;;;;;5114296;28;20442;-60
2023/09/10 05:45:45;;;;;;;3.47;1.83;;;20.70;1.00;;;;;;5115657;28;20426;-59
2023/09/10 05:48:13;;;;;;;3.20;2.03;;;20.70;1.00;;;;;;5115020;28;20416;-61
2023/09/10 05:50:40;;;;;;;4.75;2.22;;;20.80;1.00;;;;;;5113295;28;20538;-60
2023/09/10 05:53:07;;;;;;;2.40;2.10;;;20.70;1.00;;;;;;5114105;28;20416;-60
2023/09/10 05:55:40;;;;;;;3.95;2.40;;;20.60;1.00;;;;;;5114976;28;20826;-59
2023/09/10 05:58:07;;;;;;;3.15;1.95;;;20.60;1.00;;;;;;5115115;28;20420;-62
2023/09/10 06:00:36;;;;;;;3.00;2.00;;;20.70;1.00;;;;;;5117256;28;20515;-60
2023/09/10 06:03:03;;;;;;;3.70;2.47;;;20.80;1.00;;;;;;5118126;28;20692;-61
2023/09/10 06:05:31;;;;;;;3.33;2.13;;;20.80;1.00;;;;;;5115762;28;20439;-60
2023/09/10 06:07:58;;;;;;;3.80;2.40;;;20.80;1.00;;;;;;5117823;28;20428;-61
2023/09/10 06:10:25;;;;;;;2.40;1.90;;;20.80;1.00;;;;;;5117062;28;20435;-59
2023/09/10 06:12:52;;;;;;;2.80;2.17;;;20.80;1.00;;;;;;5117900;28;20723;-59
2023/09/10 06:15:19;;;;;;;3.15;2.30;;;20.80;1.00;;;;;;5115609;28;20465;-60
2023/09/10 06:17:49;;;;;;;2.78;2.00;;;20.80;1.00;;;;;;5117730;28;20834;-60
2023/09/10 06:20:16;;;;;;;4.10;2.50;;;20.90;1.00;;;;;;5116841;28;20469;-60
2023/09/10 06:22:43;;;;;;;3.70;2.58;;;20.90;1.00;;;;;;5118622;28;20412;-60
2023/09/10 06:25:10;;;;;;;4.03;2.45;;;20.90;1.00;;;;;;5117892;28;20839;-60
2023/09/10 06:27:37;;;;;;;4.90;2.40;;;21.00;1.00;;;;;;5105588;28;20840;-62
2023/09/10 06:30:06;;;;;;;2.73;2.43;;;21.00;1.00;;;;;;5116058;28;20432;-60
2023/09/10 06:32:33;;;;;;;3.53;2.60;;;21.20;1.00;;;;;;5117873;28;20500;-60
2023/09/10 06:35:01;;;;;;;2.00;1.75;;;21.20;1.00;;;;;;5117352;28;20504;-60
2023/09/10 06:37:28;;;;;;;3.70;3.13;;;21.20;1.00;;;;;;5117721;28;20423;-59
2023/09/10 06:39:56;;;;;;;3.17;2.88;;;21.10;1.00;;;;;;5117152;28;20517;-59
2023/09/10 06:42:23;;;;;;;3.80;2.92;;;21.10;1.00;;;;;;5118105;28;20472;-59
2023/09/10 06:44:50;;;;;;;3.95;2.78;;;21.00;1.00;;;;;;5116926;28;20881;-59
2023/09/10 06:47:17;;;;;;;4.35;2.53;;;20.90;1.00;;;;;;5118238;28;20486;-59
2023/09/10 06:49:47;;;;;;;3.50;2.58;;;20.90;1.00;;;;;;5117103;28;20459;-60
2023/09/10 06:52:18;;;;;;;5.05;3.00;;;21.00;1.00;;;;;;5120525;28;20518;-59
2023/09/10 06:54:45;;;;;;;2.85;2.47;;;21.20;1.00;;;;;;5117517;28;20428;-59
2023/09/10 06:57:13;;;;;;;4.90;2.83;;;21.30;1.00;;;;;;5118321;27;20906;-59
2023/09/10 06:59:40;;;;;;;4.45;2.50;;;21.50;1.00;;;;;;5117076;28;20469;-59
2023/09/10 07:02:07;;;;;;;3.20;2.90;;;21.60;1.00;;;;;;5117361;28;20424;-59
2023/09/10 07:04:34;;;;;;;5.43;2.78;;;21.50;1.00;;;;;;5116871;28;20419;-59
2023/09/10 07:07:01;;;;;;;5.63;3.00;;;21.40;1.00;;;;;;5117689;28;20458;-59
2023/09/10 07:09:30;;;;;;;3.33;2.70;;;21.40;1.00;;;;;;5116442;28;20540;-59
2023/09/10 07:11:57;;;;;;;3.83;2.95;;;21.40;1.00;;;;;;5114767;28;20409;-59
2023/09/10 07:14:24;;;;;;;3.97;3.00;;;21.40;1.00;;;;;;5116395;28;20423;-59
2023/09/10 07:16:52;;;;;;;3.17;2.72;;;21.50;1.00;;;;;;5115437;28;20443;-60
2023/09/10 07:19:19;;;;;;;4.38;3.25;;;21.60;1.00;;;;;;5114992;28;20519;-58
2023/09/10 07:21:46;;;;;;;3.60;3.10;;;21.60;1.00;;;;;;5116180;28;20427;-59
2023/09/10 07:24:13;;;;;;;3.30;3.00;;;21.70;1.00;;;;;;5115541;28;20488;-58
2023/09/10 07:26:43;;;;;;;4.78;2.72;;;21.70;1.00;;;;;;5116669;28;20697;-58
2023/09/10 07:29:15;;;;;;;3.75;2.88;;;21.70;1.00;;;;;;5115606;28;20573;-58
2023/09/10 07:31:43;;;;;;;2.65;2.17;;;21.70;1.00;;;;;;5116811;28;20452;-59
2023/09/10 07:34:10;;;;;;;3.13;2.58;;;21.80;1.00;;;;;;5115442;28;20445;-58
2023/09/10 07:36:39;;;;;;;3.72;2.63;;;22.00;99.90;;;;;;5115327;28;20750;-58
2023/09/10 07:39:06;;;;;;;4.80;3.47;;;22.20;99.90;;;;;;5114824;28;20420;-60
2023/09/10 07:41:33;;;;;;;5.40;3.58;;;22.20;99.90;;;;;;5115820;28;20420;-59
2023/09/10 07:44:03;;;;;;;4.13;3.13;;;22.30;99.90;;;;;;5115423;28;20424;-59
2023/09/10 07:46:31;;;;;;;6.10;3.80;;;22.30;99.90;;;;;;5115133;28;20431;-59
2023/09/10 07:48:58;;;;;;;4.40;4.00;;;22.30;99.90;;;;;;5114397;28;20844;-60
2023/09/10 07:51:25;;;;;;;4.30;3.50;;;22.30;99.90;;;;;;5115122;28;20435;-59
2023/09/10 07:53:52;;;;;;;5.72;4.05;;;22.40;99.90;;;;;;5115433;28;20419;-59
2023/09/10 07:56:19;;;;;;;4.38;3.92;;;22.40;99.90;;;;;;5115087;28;20791;-59
2023/09/10 07:58:47;;;;;;;5.80;3.58;;;22.50;99.90;;;;;;5116075;28;20430;-59
2023/09/10 08:01:15;;;;;;;3.00;2.70;;;22.60;99.90;;;;;;5116671;28;20416;-59
2023/09/10 08:03:43;;;;;;;5.40;3.55;;;22.80;99.90;;;;;;5110922;28;20513;-59
2023/09/10 08:06:10;;;;;;;5.50;3.50;;;22.90;99.90;;;;;;5111460;28;20709;-59
2023/09/10 08:08:38;;;;;;;4.47;4.07;;;23.10;56.00;;;;;;5115599;28;20706;-60
2023/09/10 08:11:05;;;;;;;4.30;3.53;;;23.20;8.20;;;;;;5115992;28;20424;-60
2023/09/10 08:13:32;;;;;;;3.28;2.97;;;23.20;1.00;;;;;;5115902;28;20427;-59
2023/09/10 08:16:00;;;;;;;3.95;3.55;;;23.20;1.00;;;;;;5115754;28;20427;-60
2023/09/10 08:18:28;;;;;;;4.40;3.60;;;23.40;1.00;;;;;;5115482;28;20412;-59
2023/09/10 08:20:56;;;;;;;4.07;3.53;;;23.40;1.00;;;;;;5114593;28;20404;-60
2023/09/10 08:23:23;;;;;;;4.35;3.95;;;23.40;1.00;;;;;;5113598;28;20452;-59
2023/09/10 08:25:52;;;;;;;3.83;2.93;;;23.50;1.00;;;;;;5114904;28;20427;-59
2023/09/10 08:28:19;;;;;;;5.30;3.50;;;23.50;1.00;;;;;;5114497;28;20430;-60
2023/09/10 08:30:47;;;;;;;4.20;3.50;;;23.70;1.00;;;;;;5115004;28;20742;-59
2023/09/10 08:33:14;;;;;;;3.65;3.00;;;23.70;99.90;;;;;;5115411;28;20495;-59
2023/09/10 08:35:47;;;;;;;3.10;2.50;;;23.90;99.90;;;;;;5115413;28;20430;-58
2023/09/10 08:38:14;;;;;;;3.60;3.30;;;24.00;1.00;;;;;;5115298;28;20425;-59
2023/09/10 08:40:50;;;;;;;4.30;2.97;;;24.00;1.00;;;;;;5115537;28;20409;-59
2023/09/10 08:43:19;;;;;;;3.60;2.70;;;24.10;1.00;;;;;;5106051;28;20432;-59
2023/09/10 08:45:47;;;;;;;3.65;2.30;;;24.20;99.90;;;;;;5088624;28;20839;-59
2023/09/10 08:48:16;;;;;;;4.22;2.92;;;24.30;59.60;;;;;;5091571;28;20901;-59
2023/09/10 08:50:46;;;;;;;4.50;3.50;;;24.40;1.00;;;;;;5088258;28;20434;-60
2023/09/10 08:53:15;;;;;;;5.47;3.13;;;24.50;99.90;;;;;;5086837;28;20426;-59
2023/09/10 08:55:43;;;;;;;2.55;2.35;;;24.70;1.00;;;;;;5086888;28;20841;-60
2023/09/10 08:58:12;;;;;;;4.80;3.03;;;24.80;1.00;;;;;;5085383;28;20797;-60
2023/09/10 09:00:42;;;;;;;3.50;3.20;;;24.90;99.90;;;;;;5089241;28;20727;-60
2023/09/10 09:03:10;;;;;;;4.15;3.08;;;24.90;99.90;;;;;;5088324;28;20414;-59
2023/09/10 09:05:38;;;;;;;3.20;2.70;;;25.00;1.00;;;;;;5094299;28;20410;-60
2023/09/10 09:08:15;;;;;;;2.97;2.57;;;25.10;1.00;;;;;;5094406;28;20431;-60
2023/09/10 09:10:44;;;;;;;5.27;3.00;;;25.20;1.00;;;;;;5093463;28;20524;-60
2023/09/10 09:13:13;;;;;;;3.58;2.53;;;25.20;1.00;;;;;;5094884;28;20849;-60
2023/09/10 09:15:40;;;;;;;3.03;2.72;;;25.30;1.00;;;;;;5092899;28;20444;-60
2023/09/10 09:18:09;;;;;;;2.78;2.00;;;25.40;99.90;;;;;;5093695;28;20414;-61
2023/09/10 09:20:37;;;;;;;3.60;3.30;;;25.30;99.90;;;;;;5093708;28;20533;-60
2023/09/10 09:23:12;;;;;;;4.38;3.22;;;25.50;99.90;;;;;;5102427;28;20485;-60
2023/09/10 09:25:40;;;;;;;5.40;2.60;;;25.70;1.00;;;;;;5091028;28;20449;-60
2023/09/10 09:28:09;;;;;;;2.50;2.05;;;25.80;1.00;;;;;;5091995;28;20432;-60
2023/09/10 09:30:36;;;;;;;3.03;2.73;;;25.90;1.00;;;;;;5091894;28;20434;-60
2023/09/10 09:33:05;;;;;;;2.37;2.17;;;26.00;1.00;;;;;;5091928;28;20433;-60
2023/09/10 09:35:33;;;;;;;3.47;2.10;;;26.00;1.00;;;;;;5091560;28;20897;-60
2023/09/10 09:38:06;;;;;;;3.40;2.17;;;26.10;1.00;;;;;;5092784;28;20471;-60
2023/09/10 09:40:37;;;;;;;2.88;2.50;;;26.20;1.00;;;;;;5092097;28;20870;-60
2023/09/10 09:43:08;;;;;;;3.85;2.40;;;26.30;99.90;;;;;;5099992;28;20432;-60
2023/09/10 09:45:37;;;;;;;3.53;2.13;;;26.40;99.90;;;;;;5112190;28;20428;-60
2023/09/10 09:48:05;;;;;;;2.50;2.08;;;26.50;99.90;;;;;;5114140;28;20723;-60
2023/09/10 09:50:33;;;;;;;3.25;2.53;;;26.60;99.90;;;;;;5114551;28;20850;-59
2023/09/10 09:53:01;;;;;;;2.85;2.15;;;26.70;99.90;;;;;;5112669;28;20965;-59
2023/09/10 09:55:28;;;;;;;3.60;2.10;;;26.80;99.90;;;;;;5114214;28;20485;-59
2023/09/10 09:57:56;;;;;;;3.85;2.80;;;27.00;99.90;;;;;;5114129;28;20452;-59
2023/09/10 10:00:24;;;;;;;2.50;1.98;;;27.30;99.90;;;;;;5113678;28;20408;-59
2023/09/10 10:02:51;;;;;;;3.30;1.90;;;27.40;99.90;;;;;;5112325;28;20519;-59
2023/09/10 10:05:19;;;;;;;3.70;2.22;;;27.60;99.90;;;;;;5114341;28;20507;-59
2023/09/10 10:07:47;;;;;;;3.22;1.88;;;27.70;99.90;;;;;;5112244;28;20428;-59
2023/09/10 10:10:16;;;;;;;2.90;2.30;;;27.90;38.90;;;;;;5112827;28;20507;-60
2023/09/10 10:12:45;;;;;;;3.10;1.90;;;28.20;21.40;;;;;;5111978;28;20733;-59
2023/09/10 10:15:15;;;;;;;2.85;2.35;;;28.50;1.00;;;;;;5113333;28;20416;-61
2023/09/10 10:17:43;;;;;;;3.63;2.90;;;28.50;1.00;;;;;;5112649;28;20965;-61
2023/09/10 10:20:12;;;;;;;3.30;1.90;;;28.40;1.00;;;;;;5112441;28;20459;-61
2023/09/10 10:22:39;;;;;;;2.60;2.05;;;28.60;1.00;;;;;;5112883;28;20434;-61
2023/09/10 10:25:09;;;;;;;2.97;1.85;;;29.00;1.00;;;;;;5112670;28;20510;-61
2023/09/10 10:27:36;;;;;;;3.92;2.30;;;29.30;1.00;;;;;;5108636;28;20430;-62
2023/09/10 10:30:05;;;;;;;2.78;1.65;;;29.40;1.00;;;;;;5109527;28;20874;-61
2023/09/10 10:32:40;;;;;;;2.40;1.88;;;29.60;1.00;;;;;;5113176;28;20656;-62
2023/09/10 10:35:10;;;;;;;2.50;2.07;;;29.60;1.00;;;;;;5113956;28;20535;-62
2023/09/10 10:37:46;;;;;;;2.87;2.00;;;29.80;1.00;;;;;;5114335;28;20420;-61
2023/09/10 10:40:17;;;;;;;5.00;2.15;;;30.10;1.00;;;;;;5114564;28;20866;-62
2023/09/10 10:42:50;;;;;;;2.00;1.80;;;29.90;1.00;;;;;;5113864;28;20870;-62
2023/09/10 10:45:19;;;;;;;4.15;1.90;;;30.10;1.00;;;;;;5110781;28;20417;-62
2023/09/10 10:47:49;;;;;;;2.17;1.97;;;30.00;1.00;;;;;;5113689;28;20423;-62
2023/09/10 10:50:23;;;;;;;2.20;1.70;;;30.10;1.00;;;;;;5116565;28;20416;-63
2023/09/10 10:52:56;;;;;;;2.60;1.70;;;30.30;1.00;;;;;;5116685;28;20420;-63
2023/09/10 10:55:25;;;;;;;2.60;2.05;;;30.60;1.00;;;;;;5114984;28;20431;-62
2023/09/10 10:57:53;;;;;;;2.10;1.60;;;30.80;1.00;;;;;;5115744;28;20424;-62
2023/09/10 11:00:21;;;;;;;2.97;1.65;;;30.90;1.00;;;;;;5115637;28;20413;-62
2023/09/10 11:03:09;;;;;;;2.63;1.58;;;31.10;1.00;;;;;;5115263;28;20416;-63
2023/09/10 11:06:05;;;;;;;2.50;2.30;;;31.30;1.00;;;;;;5116391;28;20439;-63
2023/09/10 11:08:33;;;;;;;3.00;1.60;;;31.20;1.00;;;;;;5093970;28;20463;-62
2023/09/10 11:11:03;;;;;;;1.90;1.70;;;31.10;1.00;;;;;;5100373;28;20816;-63
2023/09/10 11:13:30;;;;;;;2.10;1.50;;;31.00;1.00;;;;;;5104514;28;20734;-62
2023/09/10 11:16:18;;;;;;;2.60;1.90;;;31.20;1.00;;;;;;5103298;28;20422;-62
2023/09/10 11:18:46;;;;;;;1.70;1.40;;;31.40;1.00;;;;;;5095629;28;20461;-62
2023/09/10 11:21:15;;;;;;;3.60;1.80;;;31.60;1.00;;;;;;5104354;28;20465;-62
2023/09/10 11:24:21;;;;;;;2.22;1.50;;;31.80;1.00;;;;;;5100163;28;20908;-62
2023/09/10 11:26:48;;;;;;;2.90;2.10;;;31.50;1.00;;;;;;5116567;28;20400;-62
2023/09/10 11:29:18;;;;;;;2.85;1.70;;;31.50;1.00;;;;;;5099762;28;20845;-62
2023/09/10 11:31:47;;;;;;;2.63;1.55;;;31.30;1.00;;;;;;5116661;28;20815;-63
2023/09/10 11:34:39;;;;;;;2.95;2.00;;;31.40;1.00;;;;;;5115925;28;20878;-63
2023/09/10 11:37:09;;;;;;;2.40;2.05;;;31.70;1.00;;;;;;5116511;28;20853;-63
2023/09/10 11:39:37;;;;;;;2.78;1.50;;;31.50;1.00;;;;;;5116826;28;20428;-63
2023/09/10 11:42:11;;;;;;;2.15;1.70;;;31.70;1.00;;;;;;5116651;28;20807;-62
2023/09/10 11:44:38;;;;;;;1.70;1.60;;;31.90;1.00;;;;;;5115021;28;20769;-62
2023/09/10 11:47:06;;;;;;;2.30;2.10;;;31.80;1.00;;;;;;5116300;28;20504;-62
2023/09/10 11:49:33;;;;;;;2.20;1.70;;;31.60;1.00;;;;;;5114951;28;20424;-62
2023/09/10 11:52:03;;;;;;;1.90;1.70;;;31.40;1.00;;;;;;5114637;28;20432;-62
2023/09/10 11:54:31;;;;;;;2.35;1.70;;;31.60;1.00;;;;;;5110954;28;20815;-62
2023/09/10 11:56:59;;;;;;;2.70;1.80;;;31.80;1.00;;;;;;5114156;28;20404;-63
2023/09/10 11:59:29;;;;;;;2.05;1.70;;;31.60;1.00;;;;;;5109439;28;20775;-63
2023/09/10 12:01:57;;;;;;;1.90;1.40;;;31.80;1.00;;;;;;5112708;28;20435;-63
2023/09/10 12:04:32;;;;;;;3.10;1.90;;;32.00;1.00;;;;;;5112819;28;20697;-64
2023/09/10 12:07:01;;;;;;;2.10;1.85;;;32.20;1.00;;;;;;5112510;28;20501;-63
2023/09/10 12:09:30;;;;;;;2.95;1.88;;;32.40;1.00;;;;;;5114590;28;20519;-63
2023/09/10 12:12:01;;;;;;;2.30;1.57;;;32.00;1.00;;;;;;5115862;28;20428;-64
2023/09/10 12:14:28;;;;;;;2.77;2.13;;;32.00;1.00;;;;;;5115335;28;20420;-63
2023/09/10 12:16:56;;;;;;;2.50;1.60;;;31.90;1.00;;;;;;5114574;28;20425;-61
2023/09/10 12:19:23;;;;;;;2.20;2.00;;;32.10;1.00;;;;;;5114472;28;20466;-63
2023/09/10 12:21:52;;;;;;;2.03;1.50;;;32.00;1.00;;;;;;5114450;28;20769;-63
2023/09/10 12:24:20;;;;;;;1.50;1.40;;;32.20;1.00;;;;;;5116423;28;20849;-63
2023/09/10 12:26:47;;;;;;;1.92;1.58;;;31.90;1.00;;;;;;5116296;28;20443;-65
2023/09/10 12:29:15;;;;;;;2.53;1.60;;;31.80;1.00;;;;;;5115761;28;20420;-63
2023/09/10 12:31:42;;;;;;;1.80;1.50;;;31.90;1.00;;;;;;5113738;28;20844;-63
2023/09/10 12:34:14;;;;;;;1.70;1.55;;;31.70;1.00;;;;;;5113767;28;20484;-63
2023/09/10 12:36:42;;;;;;;2.05;1.70;;;31.60;1.00;;;;;;5114516;28;20526;-63
2023/09/10 12:39:20;;;;;;;1.37;1.20;;;31.70;1.00;;;;;;5115961;28;20412;-63
2023/09/10 12:41:50;;;;;;;2.40;1.38;;;31.80;1.00;;;;;;5115173;28;20767;-63
2023/09/10 12:44:18;;;;;;;2.00;1.73;;;32.00;1.00;;;;;;5115154;28;20731;-63
2023/09/10 12:46:45;;;;;;;1.80;1.50;;;32.10;1.00;;;;;;5115635;28;20769;-63
2023/09/10 12:49:13;;;;;;;1.90;1.60;;;32.10;1.00;;;;;;5116852;28;20462;-63
2023/09/10 12:51:42;;;;;;;3.13;1.80;;;31.60;1.00;;;;;;5115516;28;20442;-63
2023/09/10 12:54:09;;;;;;;3.50;1.70;;;31.70;1.00;;;;;;5115422;28;20511;-63
2023/09/10 12:56:39;;;;;;;1.77;1.60;;;31.80;1.00;;;;;;5114220;28;20876;-63
2023/09/10 12:59:07;;;;;;;1.95;1.40;;;31.70;1.00;;;;;;5115524;28;20416;-62
2023/09/10 13:01:38;;;;;;;1.80;1.50;;;31.70;1.00;;;;;;5115722;28;20428;-63
2023/09/10 13:04:05;;;;;;;2.40;2.00;;;31.70;1.00;;;;;;5115930;28;20887;-63